Time;durP1;ratioP1;P1;durP2;ratioP2;P2;SDS_P1;SDS_P2;PMS_P1;PMS_P2;Temp;Humidity;BMP_temperature;BMP_pressure;BME280_temperature;BME280_humidity;BME280_pressure;Samples;Min_cycle;Max_cycle;Signal;HPM_P1;HPM_P2
2023/04/29 00:00:36;;;;;;;4.22;1.80;;;20.00;58.10;;;;;;5114329;28;20112;-64
2023/04/29 00:03:02;;;;;;;2.25;1.58;;;20.00;58.10;;;;;;5115305;28;20085;-64
2023/04/29 00:05:27;;;;;;;3.90;1.92;;;20.00;58.00;;;;;;5114511;28;20048;-65
2023/04/29 00:07:53;;;;;;;2.17;1.60;;;20.00;58.00;;;;;;5114830;28;20514;-64
2023/04/29 00:10:18;;;;;;;4.57;2.30;;;20.00;58.00;;;;;;5115776;28;20035;-64
2023/04/29 00:12:44;;;;;;;3.13;1.98;;;20.00;58.00;;;;;;5115821;28;20043;-64
2023/04/29 00:15:10;;;;;;;2.92;2.10;;;20.00;58.00;;;;;;5110263;28;20391;-64
2023/04/29 00:17:35;;;;;;;3.65;2.25;;;20.00;58.00;;;;;;5095488;28;20036;-64
2023/04/29 00:20:01;;;;;;;3.55;1.90;;;20.00;58.00;;;;;;5094375;28;20475;-64
2023/04/29 00:22:27;;;;;;;2.80;1.67;;;20.00;58.00;;;;;;5095309;28;20044;-64
2023/04/29 00:24:53;;;;;;;3.78;1.88;;;20.00;58.00;;;;;;5111335;28;20575;-64
2023/04/29 00:27:18;;;;;;;3.97;2.05;;;19.90;57.90;;;;;;5114347;28;20455;-64
2023/04/29 00:29:44;;;;;;;2.95;1.70;;;19.90;57.90;;;;;;5114067;28;20042;-64
2023/04/29 00:32:09;;;;;;;2.72;1.60;;;19.90;58.00;;;;;;5113895;28;20043;-64
2023/04/29 00:34:35;;;;;;;3.30;1.98;;;19.90;58.00;;;;;;5114556;28;20043;-64
2023/04/29 00:37:01;;;;;;;4.05;2.08;;;19.90;58.00;;;;;;5115395;28;20039;-64
2023/04/29 00:39:26;;;;;;;3.13;1.92;;;19.90;57.90;;;;;;5115400;28;20130;-64
2023/04/29 00:41:52;;;;;;;2.45;1.60;;;19.90;57.90;;;;;;5114646;28;20051;-64
2023/04/29 00:44:17;;;;;;;3.40;2.15;;;19.90;57.90;;;;;;5085466;28;20058;-64
2023/04/29 00:46:43;;;;;;;3.50;2.05;;;19.90;57.90;;;;;;5094825;28;20487;-64
2023/04/29 00:49:09;;;;;;;4.75;2.35;;;19.90;57.90;;;;;;5093940;28;20040;-64
2023/04/29 00:51:35;;;;;;;3.95;2.05;;;19.90;57.90;;;;;;5094849;28;20044;-64
2023/04/29 00:54:02;;;;;;;3.55;2.10;;;19.90;57.90;;;;;;5101619;28;20135;-64
2023/04/29 00:56:29;;;;;;;3.20;1.90;;;19.90;57.80;;;;;;5114593;28;20069;-64
2023/04/29 00:58:55;;;;;;;3.07;1.80;;;19.80;57.80;;;;;;5089266;28;20097;-64
2023/04/29 01:01:21;;;;;;;2.47;1.73;;;19.90;57.90;;;;;;5076625;28;20680;-64
2023/04/29 01:03:46;;;;;;;2.90;1.90;;;19.90;57.90;;;;;;5098630;28;20034;-64
2023/04/29 01:06:40;;;;;;;2.72;1.75;;;19.90;57.80;;;;;;5114520;28;20040;-64
2023/04/29 01:09:32;;;;;;;3.65;2.10;;;19.90;57.80;;;;;;5114551;28;20078;-64
2023/04/29 01:12:05;;;;;;;4.07;2.00;;;19.80;57.80;;;;;;5113304;28;20479;-64
2023/04/29 01:14:31;;;;;;;4.20;2.03;;;19.80;57.80;;;;;;5113584;28;20100;-64
2023/04/29 01:16:59;;;;;;;3.88;2.08;;;19.80;57.80;;;;;;5113468;28;20483;-64
2023/04/29 01:19:46;;;;;;;4.05;2.00;;;19.80;57.70;;;;;;5113253;28;20039;-64
2023/04/29 01:22:13;;;;;;;3.13;2.13;;;19.80;57.70;;;;;;5114112;28;20052;-64
2023/04/29 01:24:39;;;;;;;3.72;2.00;;;19.80;57.80;;;;;;5113223;27;20616;-65
2023/04/29 01:27:13;;;;;;;2.50;1.70;;;19.80;57.80;;;;;;5113046;28;20127;-64
2023/04/29 01:30:12;;;;;;;3.15;1.95;;;19.80;57.70;;;;;;5114239;28;20490;-64
2023/04/29 01:32:50;;;;;;;2.95;1.90;;;19.80;57.70;;;;;;5113810;28;20035;-64
2023/04/29 01:35:29;;;;;;;3.20;2.10;;;19.80;57.70;;;;;;5080187;28;20089;-64
2023/04/29 01:38:11;;;;;;;4.18;2.10;;;19.80;57.70;;;;;;5091899;28;20036;-64
2023/04/29 01:40:46;;;;;;;3.88;2.33;;;19.80;57.70;;;;;;5111607;28;20044;-64
2023/04/29 01:43:11;;;;;;;4.45;2.10;;;19.70;57.70;;;;;;5113525;28;20093;-64
2023/04/29 01:45:40;;;;;;;4.90;2.22;;;19.70;57.70;;;;;;5059095;28;20048;-65
2023/04/29 01:48:05;;;;;;;2.92;1.80;;;19.70;57.60;;;;;;5093367;28;20040;-64
2023/04/29 01:50:31;;;;;;;3.88;1.80;;;19.70;57.70;;;;;;5110546;28;20118;-64
2023/04/29 01:52:57;;;;;;;4.63;1.83;;;19.70;57.70;;;;;;5113038;28;20047;-64
2023/04/29 01:55:23;;;;;;;3.80;2.08;;;19.70;57.70;;;;;;5113955;28;20415;-64
2023/04/29 01:57:48;;;;;;;3.28;1.92;;;19.70;57.60;;;;;;5114014;28;20499;-65
2023/04/29 02:00:14;;;;;;;3.83;1.67;;;19.70;57.60;;;;;;5111041;28;20051;-64
2023/04/29 02:02:39;;;;;;;3.72;2.20;;;19.70;57.60;;;;;;5113977;28;20047;-65
2023/04/29 02:05:05;;;;;;;2.78;2.05;;;19.70;57.70;;;;;;5112920;28;20035;-65
2023/04/29 02:07:31;;;;;;;3.13;1.90;;;19.70;57.60;;;;;;5112889;28;20043;-64
2023/04/29 02:09:56;;;;;;;3.38;1.83;;;19.70;57.60;;;;;;5111756;28;20036;-64
2023/04/29 02:12:22;;;;;;;4.47;2.05;;;19.70;57.70;;;;;;5112085;28;20035;-64
2023/04/29 02:14:51;;;;;;;3.38;1.85;;;19.70;57.60;;;;;;5111544;28;20031;-65
2023/04/29 02:17:17;;;;;;;4.15;1.98;;;19.70;57.60;;;;;;5113420;28;20063;-64
2023/04/29 02:19:43;;;;;;;3.25;2.17;;;19.70;57.60;;;;;;5112330;28;20048;-65
2023/04/29 02:22:11;;;;;;;3.35;2.03;;;19.70;57.60;;;;;;5112647;28;20040;-64
2023/04/29 02:24:36;;;;;;;;;;;19.70;57.60;;;;;;5113568;28;20055;-65
2023/04/29 02:27:04;;;;;;;4.07;2.40;;;19.70;57.50;;;;;;5112429;28;19926;-65
2023/04/29 02:29:30;;;;;;;3.88;2.15;;;19.70;57.60;;;;;;5113323;28;20087;-65
2023/04/29 02:31:56;;;;;;;2.75;1.88;;;19.70;57.60;;;;;;5111835;28;20048;-65
2023/04/29 02:34:22;;;;;;;3.10;2.20;;;19.70;57.60;;;;;;5112194;28;20130;-65
2023/04/29 02:36:48;;;;;;;3.35;1.88;;;19.60;57.50;;;;;;5112180;28;20051;-65
2023/04/29 02:39:14;;;;;;;3.33;2.05;;;19.70;57.60;;;;;;5112649;28;20819;-64
2023/04/29 02:41:41;;;;;;;4.32;2.30;;;19.60;57.50;;;;;;5112279;28;20100;-65
2023/04/29 02:44:06;;;;;;;3.05;2.00;;;19.60;57.50;;;;;;5112680;28;20061;-65
2023/04/29 02:46:34;;;;;;;3.60;2.00;;;19.60;57.50;;;;;;5113355;28;20043;-64
2023/04/29 02:49:00;;;;;;;3.22;1.88;;;19.60;57.50;;;;;;5110850;28;20075;-64
2023/04/29 02:51:26;;;;;;;3.72;2.05;;;19.60;57.50;;;;;;5113150;28;20067;-64
2023/04/29 02:53:52;;;;;;;5.03;2.28;;;19.60;57.50;;;;;;5110642;28;20050;-65
2023/04/29 02:56:18;;;;;;;2.97;2.08;;;19.60;57.50;;;;;;5112031;28;20039;-65
2023/04/29 02:58:43;;;;;;;4.25;2.00;;;19.60;57.50;;;;;;5112853;28;20103;-64
2023/04/29 03:01:09;;;;;;;3.60;2.08;;;19.60;57.50;;;;;;5112177;28;20051;-64
2023/04/29 03:03:34;;;;;;;2.92;1.98;;;19.60;57.50;;;;;;5112098;28;20040;-65
2023/04/29 03:06:00;;;;;;;4.47;2.13;;;19.60;58.20;;;;;;5112247;28;20043;-65
2023/04/29 03:08:25;;;;;;;5.72;2.03;;;19.60;57.60;;;;;;5112998;28;20035;-64
2023/04/29 03:10:51;;;;;;;3.35;2.17;;;19.60;57.50;;;;;;5111493;28;20051;-66
2023/04/29 03:13:17;;;;;;;2.92;1.60;;;19.60;57.50;;;;;;5112358;28;20051;-65
2023/04/29 03:15:43;;;;;;;3.42;2.13;;;19.60;57.50;;;;;;5112694;28;20042;-64
2023/04/29 03:18:09;;;;;;;5.20;2.13;;;19.60;57.50;;;;;;5111986;28;20483;-65
2023/04/29 03:20:34;;;;;;;3.60;1.92;;;19.60;57.50;;;;;;5112354;28;20067;-64
2023/04/29 03:23:01;;;;;;;3.00;1.60;;;19.60;57.50;;;;;;5111982;28;20047;-65
2023/04/29 03:25:27;;;;;;;2.95;1.98;;;19.60;57.50;;;;;;5112188;28;20055;-64
2023/04/29 03:27:53;;;;;;;3.15;2.10;;;19.60;57.50;;;;;;5113073;28;20050;-65
2023/04/29 03:30:18;;;;;;;2.63;1.60;;;19.70;57.50;;;;;;5111226;28;20027;-64
2023/04/29 03:32:44;;;;;;;3.53;1.73;;;19.70;57.50;;;;;;5112938;28;20153;-65
2023/04/29 03:35:10;;;;;;;4.32;1.90;;;19.70;57.50;;;;;;5112184;28;20119;-64
2023/04/29 03:37:36;;;;;;;2.80;1.95;;;19.70;57.40;;;;;;5112008;28;20115;-64
2023/04/29 03:40:03;;;;;;;4.05;2.03;;;19.70;57.40;;;;;;5112062;28;20067;-64
2023/04/29 03:42:28;;;;;;;2.72;1.80;;;19.70;57.40;;;;;;5112416;28;20047;-64
2023/04/29 03:44:54;;;;;;;2.83;1.70;;;19.70;57.40;;;;;;5110360;28;20040;-64
2023/04/29 03:47:19;;;;;;;3.58;1.80;;;19.70;57.40;;;;;;5112087;28;20122;-64
2023/04/29 03:49:45;;;;;;;2.83;1.65;;;19.70;57.50;;;;;;5112305;28;20547;-64
2023/04/29 03:52:11;;;;;;;3.22;1.85;;;19.70;57.40;;;;;;5111574;28;20532;-64
2023/04/29 03:54:37;;;;;;;3.30;1.70;;;19.70;57.40;;;;;;5111206;28;20078;-64
2023/04/29 03:57:03;;;;;;;2.38;1.80;;;19.70;57.40;;;;;;5111090;28;20079;-64
2023/04/29 03:59:29;;;;;;;3.45;1.77;;;19.70;57.40;;;;;;5109980;28;20039;-64
2023/04/29 04:01:54;;;;;;;3.33;1.95;;;19.80;57.40;;;;;;5102714;28;20055;-64
2023/04/29 04:04:20;;;;;;;3.47;1.70;;;19.80;57.40;;;;;;5090784;28;20038;-64
2023/04/29 04:06:50;;;;;;;3.72;1.77;;;19.80;57.40;;;;;;5093386;28;20040;-64
2023/04/29 04:09:19;;;;;;;3.58;1.85;;;19.80;57.40;;;;;;5095162;28;20048;-64
2023/04/29 04:11:44;;;;;;;4.85;2.10;;;19.80;57.40;;;;;;5094804;28;20062;-64
2023/04/29 04:14:10;;;;;;;3.35;1.80;;;19.80;57.40;;;;;;5094509;28;20467;-64
2023/04/29 04:16:36;;;;;;;4.30;2.25;;;19.80;57.30;;;;;;5095907;28;20453;-64
2023/04/29 04:19:01;;;;;;;4.25;1.95;;;19.80;57.30;;;;;;5094888;28;20075;-64
2023/04/29 04:21:28;;;;;;;2.83;2.00;;;19.80;57.30;;;;;;5095189;28;20051;-64
2023/04/29 04:23:54;;;;;;;2.65;1.70;;;19.90;57.40;;;;;;5095342;28;20071;-64
2023/04/29 04:26:20;;;;;;;2.20;1.45;;;19.90;57.30;;;;;;5094460;28;20352;-64
2023/04/29 04:28:46;;;;;;;3.17;1.55;;;19.90;57.30;;;;;;5094082;28;20169;-64
2023/04/29 04:31:15;;;;;;;4.07;2.20;;;19.90;57.30;;;;;;5094916;28;20123;-64
2023/04/29 04:33:41;;;;;;;3.50;1.70;;;19.90;57.30;;;;;;5094477;28;20044;-64
2023/04/29 04:36:07;;;;;;;2.60;1.58;;;19.90;57.30;;;;;;5094560;28;20044;-64
2023/04/29 04:38:32;;;;;;;3.60;1.83;;;19.90;57.30;;;;;;5095384;28;20049;-64
2023/04/29 04:40:58;;;;;;;2.53;1.63;;;19.90;57.30;;;;;;5094161;28;20048;-64
2023/04/29 04:43:23;;;;;;;2.67;1.60;;;19.90;57.20;;;;;;5095304;28;20044;-65
2023/04/29 04:45:49;;;;;;;2.85;1.77;;;19.90;57.20;;;;;;5095247;28;20475;-64
2023/04/29 04:48:15;;;;;;;2.25;1.60;;;20.00;57.30;;;;;;5094063;28;20043;-64
2023/04/29 04:50:40;;;;;;;3.78;1.85;;;19.90;57.20;;;;;;5102432;28;20414;-65
2023/04/29 04:53:06;;;;;;;3.15;1.90;;;20.00;57.30;;;;;;5115133;28;20066;-65
2023/04/29 04:55:32;;;;;;;3.90;2.08;;;20.00;57.30;;;;;;5112810;28;20050;-64
2023/04/29 04:57:58;;;;;;;2.92;1.80;;;20.00;57.30;;;;;;5114940;28;20039;-64
2023/04/29 05:00:23;;;;;;;2.63;1.75;;;20.00;57.20;;;;;;5114727;28;20455;-65
2023/04/29 05:02:49;;;;;;;4.20;1.88;;;20.00;57.20;;;;;;5114474;28;20101;-65
2023/04/29 05:05:14;;;;;;;3.42;1.92;;;20.00;57.20;;;;;;5109888;28;20493;-64
2023/04/29 05:07:40;;;;;;;2.55;1.55;;;20.00;57.20;;;;;;5094794;28;20414;-64
2023/04/29 05:10:07;;;;;;;4.68;1.95;;;20.00;57.20;;;;;;5093515;28;20402;-64
2023/04/29 05:12:34;;;;;;;4.45;1.95;;;20.00;57.10;;;;;;5093408;28;20050;-65
2023/04/29 05:15:00;;;;;;;3.47;1.65;;;20.00;57.20;;;;;;5094424;28;20036;-65
2023/04/29 05:17:25;;;;;;;2.50;1.60;;;20.00;57.20;;;;;;5092710;28;20040;-64
2023/04/29 05:19:51;;;;;;;3.63;1.90;;;19.90;57.10;;;;;;5094040;28;20050;-64
2023/04/29 05:22:16;;;;;;;3.03;1.80;;;19.90;57.10;;;;;;5093819;28;20051;-64
2023/04/29 05:24:42;;;;;;;3.60;1.80;;;19.90;57.10;;;;;;5092059;28;20048;-65
2023/04/29 05:27:08;;;;;;;2.58;1.65;;;19.90;57.10;;;;;;5093709;28;20452;-64
2023/04/29 05:29:33;;;;;;;2.75;1.70;;;19.90;57.10;;;;;;5093674;28;20039;-65
2023/04/29 05:31:59;;;;;;;3.45;1.75;;;19.90;57.00;;;;;;5093612;28;20036;-64
2023/04/29 05:34:24;;;;;;;3.25;1.83;;;20.00;57.10;;;;;;5093733;28;20134;-65
2023/04/29 05:36:50;;;;;;;4.10;1.70;;;19.90;57.10;;;;;;5093199;28;20047;-64
2023/04/29 05:39:16;;;;;;;3.22;1.60;;;19.90;57.10;;;;;;5093731;28;20463;-65
2023/04/29 05:41:42;;;;;;;3.47;1.65;;;19.90;57.10;;;;;;5094151;28;20086;-64
2023/04/29 05:44:07;;;;;;;2.38;1.60;;;19.90;57.10;;;;;;5092931;28;20036;-64
2023/04/29 05:46:33;;;;;;;2.47;1.60;;;19.90;57.10;;;;;;5093794;28;20051;-64
2023/04/29 05:48:58;;;;;;;2.80;1.50;;;19.90;57.10;;;;;;5092390;28;20047;-65
2023/04/29 05:51:24;;;;;;;2.30;1.40;;;19.90;57.10;;;;;;5093053;28;20530;-65
2023/04/29 05:53:50;;;;;;;2.88;1.67;;;19.90;57.10;;;;;;5093726;28;20507;-65
2023/04/29 05:56:15;;;;;;;2.58;1.50;;;19.90;57.10;;;;;;5096093;28;20121;-66
2023/04/29 05:58:41;;;;;;;2.67;1.50;;;19.90;57.10;;;;;;5091282;28;20040;-66
2023/04/29 06:01:06;;;;;;;2.95;1.70;;;19.90;57.20;;;;;;5093028;28;20036;-65
2023/04/29 06:03:33;;;;;;;2.10;1.33;;;19.90;57.20;;;;;;5093367;28;20089;-67
2023/04/29 06:05:58;;;;;;;6.03;1.70;;;19.90;57.20;;;;;;5092205;28;20040;-63
2023/04/29 06:08:24;;;;;;;4.55;1.50;;;19.90;57.30;;;;;;5092184;28;20097;-68
2023/04/29 06:10:51;;;;;;;5.32;1.88;;;19.90;57.30;;;;;;5093486;28;20036;-63
2023/04/29 06:13:16;;;;;;;7.28;1.92;;;19.90;57.30;;;;;;5092178;28;20499;-63
2023/04/29 06:15:42;;;;;;;4.40;1.92;;;19.90;57.40;;;;;;5093120;28;20071;-63
2023/04/29 06:18:07;;;;;;;6.45;2.33;;;19.90;57.70;;;;;;5091462;28;20044;-64
2023/04/29 06:20:33;;;;;;;3.97;1.67;;;19.90;57.80;;;;;;5092052;28;20044;-63
2023/04/29 06:22:58;;;;;;;5.38;1.50;;;19.90;57.70;;;;;;5091426;28;20071;-63
2023/04/29 06:25:24;;;;;;;3.97;1.58;;;19.90;57.70;;;;;;5092921;28;20094;-67
2023/04/29 06:27:50;;;;;;;6.70;2.33;;;19.90;57.70;;;;;;5092566;28;20047;-64
2023/04/29 06:30:15;;;;;;;4.40;1.88;;;19.90;57.80;;;;;;5091294;28;20048;-64
2023/04/29 06:32:41;;;;;;;4.82;1.65;;;19.90;57.90;;;;;;5072080;28;20041;-64
2023/04/29 06:35:07;;;;;;;5.85;1.75;;;20.00;58.10;;;;;;5072319;28;20567;-64
2023/04/29 06:37:32;;;;;;;4.82;2.00;;;20.00;58.20;;;;;;5091709;28;20052;-65
2023/04/29 06:39:58;;;;;;;9.23;1.90;;;20.00;58.30;;;;;;5091938;28;20045;-63
2023/04/29 06:42:24;;;;;;;4.43;2.05;;;20.00;58.40;;;;;;5092922;28;20372;-64
2023/04/29 06:44:49;;;;;;;6.60;1.70;;;20.00;58.50;;;;;;5092832;28;20529;-64
2023/04/29 06:47:15;;;;;;;4.03;1.70;;;20.00;58.50;;;;;;5106335;28;20422;-64
2023/04/29 06:49:42;;;;;;;3.25;1.70;;;20.00;58.60;;;;;;5113115;28;20069;-64
2023/04/29 06:52:08;;;;;;;4.10;1.55;;;20.10;58.70;;;;;;5112607;28;20044;-63
2023/04/29 06:54:33;;;;;;;6.28;1.42;;;20.00;58.60;;;;;;5112548;28;20231;-63
2023/04/29 06:56:59;;;;;;;5.75;1.70;;;20.10;58.70;;;;;;5112736;28;20043;-62
2023/04/29 06:59:25;;;;;;;6.63;1.67;;;20.10;58.80;;;;;;5113088;28;20053;-64
2023/04/29 07:01:51;;;;;;;4.53;1.90;;;20.10;58.90;;;;;;5112015;28;20100;-63
2023/04/29 07:04:16;;;;;;;3.33;1.52;;;20.10;58.90;;;;;;5111096;28;20048;-65
2023/04/29 07:06:45;;;;;;;2.97;1.75;;;20.20;59.00;;;;;;5112480;28;20070;-64
2023/04/29 07:09:14;;;;;;;5.65;1.48;;;20.20;59.00;;;;;;5111944;28;20398;-64
2023/04/29 07:11:39;;;;;;;4.53;1.50;;;20.20;59.00;;;;;;5111450;28;20467;-64
2023/04/29 07:14:06;;;;;;;5.93;1.80;;;20.20;59.00;;;;;;5111467;28;20044;-65
2023/04/29 07:16:31;;;;;;;4.43;1.63;;;20.20;59.10;;;;;;5110557;28;20036;-64
2023/04/29 07:18:57;;;;;;;3.03;1.50;;;20.20;59.10;;;;;;5112703;28;20085;-65
2023/04/29 07:21:22;;;;;;;5.10;2.35;;;20.30;59.20;;;;;;5112633;28;20048;-65
2023/04/29 07:23:48;;;;;;;6.93;1.80;;;20.30;59.20;;;;;;5112160;28;20048;-66
2023/04/29 07:26:15;;;;;;;3.70;1.65;;;20.30;59.20;;;;;;5112263;28;20602;-65
2023/04/29 07:28:41;;;;;;;4.13;1.60;;;20.30;59.10;;;;;;5112828;28;20079;-66
2023/04/29 07:31:06;;;;;;;6.45;1.85;;;20.30;59.10;;;;;;5111760;28;20075;-66
2023/04/29 07:33:32;;;;;;;4.35;1.77;;;20.30;59.10;;;;;;5111781;28;20554;-65
2023/04/29 07:35:59;;;;;;;4.00;1.73;;;20.40;59.10;;;;;;5111395;28;20082;-65
2023/04/29 07:38:25;;;;;;;2.60;1.45;;;20.40;59.20;;;;;;5112680;28;20083;-65
2023/04/29 07:40:51;;;;;;;4.05;1.73;;;20.40;59.10;;;;;;5112915;28;20047;-65
2023/04/29 07:43:16;;;;;;;2.70;1.50;;;20.40;59.00;;;;;;5094402;28;20507;-65
2023/04/29 07:45:42;;;;;;;3.42;1.40;;;20.40;59.10;;;;;;5096165;28;20561;-66
2023/04/29 07:48:07;;;;;;;5.13;1.73;;;20.40;59.10;;;;;;5096025;28;20372;-65
2023/04/29 07:50:36;;;;;;;3.78;1.65;;;20.40;59.00;;;;;;5095362;28;20044;-65
2023/04/29 07:53:02;;;;;;;5.65;1.70;;;20.40;59.00;;;;;;5096098;28;20036;-65
2023/04/29 07:55:31;;;;;;;3.95;1.80;;;20.40;59.00;;;;;;5096318;28;20047;-65
2023/04/29 07:57:57;;;;;;;5.03;1.55;;;20.50;59.10;;;;;;5094934;28;20040;-65
2023/04/29 08:00:22;;;;;;;4.90;1.67;;;20.40;59.00;;;;;;5094736;28;20089;-65
2023/04/29 08:02:52;;;;;;;4.13;1.70;;;20.50;59.00;;;;;;5110923;28;20051;-65
2023/04/29 08:05:19;;;;;;;2.90;1.33;;;20.50;59.00;;;;;;5096472;28;20047;-65
2023/04/29 08:07:44;;;;;;;4.18;1.80;;;20.50;59.00;;;;;;5095491;28;20040;-65
2023/04/29 08:10:10;;;;;;;2.65;1.23;;;20.50;59.00;;;;;;5095006;28;20047;-65
2023/04/29 08:12:36;;;;;;;4.07;1.60;;;20.50;59.00;;;;;;5093081;28;20066;-64
2023/04/29 08:15:01;;;;;;;4.20;1.98;;;20.50;59.00;;;;;;5094773;28;20075;-65
2023/04/29 08:17:27;;;;;;;3.53;1.67;;;20.50;59.70;;;;;;5095309;28;20036;-65
2023/04/29 08:19:53;;;;;;;3.28;1.60;;;20.50;59.00;;;;;;5092389;28;20040;-64
2023/04/29 08:22:18;;;;;;;4.10;1.20;;;20.50;58.90;;;;;;5094767;28;20048;-64
2023/04/29 08:24:44;;;;;;;4.25;1.45;;;20.50;58.90;;;;;;5093234;28;20044;-65
2023/04/29 08:27:10;;;;;;;4.50;1.63;;;20.50;59.00;;;;;;5093620;28;20605;-64
2023/04/29 08:29:35;;;;;;;2.47;1.30;;;20.50;59.00;;;;;;5094891;28;20040;-66
2023/04/29 08:32:01;;;;;;;3.60;1.40;;;20.60;59.00;;;;;;5094895;28;20067;-66
2023/04/29 08:34:27;;;;;;;4.03;1.65;;;20.60;59.00;;;;;;5094894;28;20087;-65
2023/04/29 08:36:52;;;;;;;4.93;1.70;;;20.60;59.00;;;;;;5095415;28;20085;-66
2023/04/29 08:39:18;;;;;;;2.47;1.30;;;20.60;59.00;;;;;;5094149;28;20072;-65
2023/04/29 08:41:48;;;;;;;3.80;1.73;;;20.60;59.10;;;;;;5095290;28;20040;-66
2023/04/29 08:44:13;;;;;;;5.47;1.55;;;20.60;59.20;;;;;;5094941;28;20044;-65
2023/04/29 08:46:39;;;;;;;3.78;1.50;;;20.60;59.10;;;;;;5094444;28;20044;-65
2023/04/29 08:49:05;;;;;;;3.83;1.45;;;20.70;59.00;;;;;;5094857;28;20534;-65
2023/04/29 08:51:32;;;;;;;3.25;1.40;;;20.70;59.00;;;;;;5076279;28;20404;-65
2023/04/29 08:53:57;;;;;;;4.38;1.58;;;20.70;59.00;;;;;;5098930;28;20040;-65
2023/04/29 08:56:23;;;;;;;5.07;1.63;;;20.70;58.90;;;;;;5115356;28;20415;-64
2023/04/29 08:58:53;;;;;;;4.93;1.33;;;20.70;58.80;;;;;;5115194;28;20055;-64
2023/04/29 09:01:19;;;;;;;3.58;1.63;;;20.80;58.80;;;;;;5112707;28;20502;-64
2023/04/29 09:04:07;;;;;;;4.15;1.65;;;20.80;58.70;;;;;;5115079;28;20070;-65
2023/04/29 09:06:32;;;;;;;2.92;1.90;;;20.80;58.60;;;;;;5115266;28;20044;-64
2023/04/29 09:08:58;;;;;;;5.38;1.83;;;20.80;58.60;;;;;;5113439;28;20100;-64
2023/04/29 09:11:24;;;;;;;2.75;1.50;;;20.80;58.50;;;;;;5115310;28;20402;-64
2023/04/29 09:13:50;;;;;;;8.38;2.58;;;20.80;58.50;;;;;;5115786;28;20536;-65
2023/04/29 09:16:15;;;;;;;8.88;2.47;;;20.80;58.50;;;;;;5093717;28;20488;-64
2023/04/29 09:18:48;;;;;;;10.07;3.15;;;20.90;58.70;;;;;;5093577;28;20109;-64
2023/04/29 09:21:20;;;;;;;9.13;3.08;;;20.80;58.70;;;;;;5092918;28;20696;-66
2023/04/29 09:23:47;;;;;;;10.82;3.67;;;20.80;58.90;;;;;;5089626;28;20525;-65
2023/04/29 09:26:13;;;;;;;8.23;2.95;;;20.80;59.00;;;;;;5091308;28;20098;-66
2023/04/29 09:28:40;;;;;;;7.10;3.05;;;20.80;59.00;;;;;;5093371;28;20483;-65
2023/04/29 09:31:07;;;;;;;9.00;3.38;;;20.80;59.10;;;;;;5093972;28;20040;-65
2023/04/29 09:33:57;;;;;;;6.75;2.90;;;20.90;59.20;;;;;;5094312;28;20044;-65
2023/04/29 09:36:49;;;;;;;7.68;3.22;;;20.90;59.30;;;;;;5093133;28;20400;-64
2023/04/29 09:39:16;;;;;;;11.20;3.10;;;20.90;59.30;;;;;;5090110;28;20056;-65
2023/04/29 09:41:51;;;;;;;12.55;2.92;;;20.90;59.30;;;;;;5094133;28;20044;-64
2023/04/29 09:44:17;;;;;;;12.27;3.60;;;20.90;59.40;;;;;;5093008;28;20055;-65
2023/04/29 09:46:42;;;;;;;8.73;3.40;;;20.90;59.40;;;;;;5094103;28;20040;-65
2023/04/29 09:49:24;;;;;;;9.63;2.90;;;20.90;59.40;;;;;;5093687;28;20092;-65
2023/04/29 09:51:58;;;;;;;6.93;3.33;;;20.90;59.40;;;;;;5093215;28;20040;-65
2023/04/29 09:54:24;;;;;;;8.82;3.13;;;20.90;59.40;;;;;;5093732;28;20376;-65
2023/04/29 09:56:51;;;;;;;7.53;2.92;;;20.90;59.30;;;;;;5091665;28;20040;-66
2023/04/29 09:59:18;;;;;;;5.72;2.85;;;20.90;59.30;;;;;;5092812;28;20036;-65
2023/04/29 10:01:45;;;;;;;11.15;3.00;;;21.00;59.40;;;;;;5093879;28;20118;-64
2023/04/29 10:04:11;;;;;;;7.25;2.80;;;21.00;59.40;;;;;;5073600;28;20409;-66
2023/04/29 10:06:38;;;;;;;9.38;3.08;;;21.00;59.40;;;;;;5091258;28;20605;-65
2023/04/29 10:09:05;;;;;;;7.15;2.70;;;21.00;59.50;;;;;;5091490;28;20138;-65
2023/04/29 10:11:30;;;;;;;6.57;2.80;;;21.00;59.30;;;;;;5090719;28;20499;-65
2023/04/29 10:13:56;;;;;;;6.55;2.63;;;21.00;59.20;;;;;;5091377;28;20139;-65
2023/04/29 10:16:28;;;;;;;10.32;3.17;;;21.00;59.20;;;;;;5092003;28;20044;-65
2023/04/29 10:18:55;;;;;;;9.73;2.90;;;21.00;59.10;;;;;;5090497;28;20403;-65
2023/04/29 10:21:30;;;;;;;6.97;2.83;;;21.00;59.20;;;;;;5092552;28;20486;-65
2023/04/29 10:23:57;;;;;;;9.15;3.08;;;21.00;59.20;;;;;;5092382;28;20055;-66
2023/04/29 10:26:30;;;;;;;8.77;3.05;;;21.00;59.20;;;;;;5090570;28;20388;-66
2023/04/29 10:28:58;;;;;;;5.65;2.33;;;21.00;59.20;;;;;;5090902;28;20543;-65
2023/04/29 10:31:26;;;;;;;9.43;2.78;;;21.00;59.30;;;;;;5091759;28;20048;-72
2023/04/29 10:33:56;;;;;;;8.07;3.42;;;21.00;59.30;;;;;;5091621;28;20116;-65
2023/04/29 10:36:23;;;;;;;7.07;2.80;;;21.00;59.20;;;;;;5090920;28;20036;-65
2023/04/29 10:38:51;;;;;;;9.35;3.53;;;21.00;59.90;;;;;;5089646;28;20054;-65
2023/04/29 10:41:28;;;;;;;6.53;2.80;;;21.00;59.00;;;;;;5091692;28;20043;-65
2023/04/29 10:43:54;;;;;;;7.32;2.90;;;21.00;58.90;;;;;;5091989;28;20047;-65
2023/04/29 10:46:27;;;;;;;9.25;2.95;;;21.00;58.90;;;;;;5092493;28;20043;-65
2023/04/29 10:48:59;;;;;;;7.95;2.83;;;21.00;58.90;;;;;;5093022;28;20109;-65
2023/04/29 10:51:45;;;;;;;7.35;3.05;;;21.00;58.80;;;;;;5092824;28;20040;-65
2023/04/29 10:54:14;;;;;;;8.10;2.60;;;21.00;58.80;;;;;;5091691;28;20047;-65
2023/04/29 10:56:40;;;;;;;5.75;2.83;;;21.00;58.80;;;;;;5092990;28;20031;-66
2023/04/29 10:59:13;;;;;;;7.68;2.55;;;21.00;58.80;;;;;;5092860;28;20048;-65
2023/04/29 11:01:45;;;;;;;6.38;2.65;;;21.00;58.70;;;;;;5091190;28;20032;-65
2023/04/29 11:04:11;;;;;;;7.65;2.72;;;21.00;58.70;;;;;;5092831;28;20048;-65
2023/04/29 11:06:40;;;;;;;7.50;2.72;;;21.00;58.70;;;;;;5092774;28;20410;-64
2023/04/29 11:09:09;;;;;;;8.82;2.90;;;21.00;58.70;;;;;;5091846;28;20101;-65
2023/04/29 11:11:57;;;;;;;9.30;2.90;;;21.00;58.50;;;;;;5092997;28;20499;-65
2023/04/29 11:14:42;;;;;;;5.63;2.38;;;21.00;58.40;;;;;;5091076;28;20052;-66
2023/04/29 11:17:11;;;;;;;7.22;2.50;;;21.00;58.50;;;;;;5096537;28;20048;-65
2023/04/29 11:19:41;;;;;;;5.00;2.53;;;21.00;58.50;;;;;;5097155;28;20503;-65
2023/04/29 11:22:08;;;;;;;6.40;2.55;;;21.00;58.40;;;;;;5094388;28;20036;-65
2023/04/29 11:24:35;;;;;;;5.15;2.33;;;20.90;58.40;;;;;;5096799;28;20048;-65
2023/04/29 11:27:03;;;;;;;7.25;2.47;;;21.00;58.40;;;;;;5096665;28;20040;-65
2023/04/29 11:29:30;;;;;;;4.30;1.90;;;20.90;58.30;;;;;;5094977;28;20070;-65
2023/04/29 11:32:01;;;;;;;4.75;2.20;;;20.90;58.20;;;;;;5095386;28;20051;-65
2023/04/29 11:34:27;;;;;;;5.55;2.40;;;21.00;58.30;;;;;;5096461;28;20043;-65
2023/04/29 11:36:53;;;;;;;5.57;2.38;;;21.00;58.20;;;;;;5095890;28;20044;-65
2023/04/29 11:39:18;;;;;;;4.80;2.03;;;21.00;58.20;;;;;;5096432;28;20123;-66
2023/04/29 11:41:44;;;;;;;7.50;2.20;;;21.00;58.10;;;;;;5096694;28;20395;-65
2023/04/29 11:44:10;;;;;;;5.90;2.30;;;21.00;58.10;;;;;;5095447;28;20495;-65
2023/04/29 11:46:36;;;;;;;6.43;2.53;;;21.00;58.00;;;;;;5095406;28;20081;-65
2023/04/29 11:49:01;;;;;;;4.60;2.08;;;21.00;58.00;;;;;;5095913;28;20047;-65
2023/04/29 11:51:27;;;;;;;4.78;1.88;;;21.00;57.90;;;;;;5094164;28;20052;-65
2023/04/29 11:53:53;;;;;;;6.97;2.28;;;21.00;57.90;;;;;;5095337;28;20043;-65
2023/04/29 11:56:24;;;;;;;4.93;2.30;;;21.00;57.90;;;;;;5095350;28;20048;-66
2023/04/29 11:58:54;;;;;;;4.68;1.88;;;21.00;57.90;;;;;;5095610;28;20040;-65
2023/04/29 12:01:20;;;;;;;6.15;2.40;;;21.00;57.80;;;;;;5096095;28;20044;-65
2023/04/29 12:03:47;;;;;;;3.97;1.83;;;21.00;57.80;;;;;;5094309;28;20048;-65
2023/04/29 12:06:14;;;;;;;4.70;2.10;;;21.00;57.80;;;;;;5095776;28;20044;-65
2023/04/29 12:08:39;;;;;;;3.95;2.15;;;21.00;57.70;;;;;;5095998;28;20486;-65
2023/04/29 12:11:05;;;;;;;4.88;2.00;;;21.00;57.70;;;;;;5095095;28;20086;-67
2023/04/29 12:13:32;;;;;;;3.95;1.77;;;21.00;57.70;;;;;;5096055;28;20036;-65
2023/04/29 12:15:57;;;;;;;4.72;1.95;;;21.00;57.70;;;;;;5094384;28;20036;-65
2023/04/29 12:18:23;;;;;;;5.78;2.03;;;21.00;57.60;;;;;;5094114;28;20051;-65
2023/04/29 12:20:54;;;;;;;4.30;2.10;;;21.00;57.50;;;;;;5094856;28;20040;-65
2023/04/29 12:23:21;;;;;;;4.53;1.70;;;21.00;57.50;;;;;;5094806;28;20048;-66
2023/04/29 12:25:54;;;;;;;4.57;1.67;;;21.00;57.50;;;;;;5094723;28;20499;-66
2023/04/29 12:28:19;;;;;;;5.40;2.03;;;21.00;57.40;;;;;;5095643;28;20046;-65
2023/04/29 12:30:55;;;;;;;3.13;1.77;;;21.00;57.40;;;;;;5095449;28;20123;-65
2023/04/29 12:33:26;;;;;;;4.50;1.90;;;21.00;57.30;;;;;;5094656;28;20036;-66
2023/04/29 12:35:53;;;;;;;6.75;1.88;;;21.00;57.30;;;;;;5095018;28;20456;-65
2023/04/29 12:38:29;;;;;;;5.63;2.03;;;21.00;57.20;;;;;;5095216;28;20495;-65
2023/04/29 12:40:55;;;;;;;4.95;1.77;;;21.00;57.20;;;;;;5095329;28;20048;-65
2023/04/29 12:43:32;;;;;;;4.88;1.75;;;21.00;57.20;;;;;;5095190;28;20058;-65
2023/04/29 12:46:04;;;;;;;3.40;1.52;;;21.00;57.10;;;;;;5094358;28;20051;-65
2023/04/29 12:48:31;;;;;;;4.93;1.73;;;21.00;57.10;;;;;;5093879;28;20407;-65